sensor_id;sensor_type;location;lat;lon;timestamp;pressure;altitude;pressure_sealevel;temperature;humidity
14790;BME280;7486;51.010;10.366;2023-01-25T00:00:04;100163.22;;;-3.91;96.22
14790;BME280;7486;51.010;10.366;2023-01-25T00:02:31;100221.09;;;-3.34;96.98
14790;BME280;7486;51.010;10.366;2023-01-25T00:04:58;100197.28;;;-3.24;95.70
14790;BME280;7486;51.010;10.366;2023-01-25T00:07:25;100211.28;;;-3.09;94.69
14790;BME280;7486;51.010;10.366;2023-01-25T00:09:51;100217.44;;;-3.30;93.96
14790;BME280;7486;51.010;10.366;2023-01-25T00:12:18;100212.19;;;-3.48;94.97
14790;BME280;7486;51.010;10.366;2023-01-25T00:14:45;100221.88;;;-3.32;94.94
14790;BME280;7486;51.010;10.366;2023-01-25T00:17:11;100216.09;;;-3.58;95.67
14790;BME280;7486;51.010;10.366;2023-01-25T00:19:38;100218.41;;;-3.52;95.67
14790;BME280;7486;51.010;10.366;2023-01-25T00:22:05;100203.28;;;-3.61;96.18
14790;BME280;7486;51.010;10.366;2023-01-25T00:24:31;100214.75;;;-3.66;96.69
14790;BME280;7486;51.010;10.366;2023-01-25T00:26:58;100212.25;;;-3.49;97.00
14790;BME280;7486;51.010;10.366;2023-01-25T00:29:25;100217.28;;;-3.65;96.92
14790;BME280;7486;51.010;10.366;2023-01-25T00:37:01;100206.78;;;-3.80;97.54
14790;BME280;7486;51.010;10.366;2023-01-25T00:39:28;100188.59;;;-3.99;97.41
14790;BME280;7486;51.010;10.366;2023-01-25T00:41:55;100188.34;;;-4.13;98.29
14790;BME280;7486;51.010;10.366;2023-01-25T00:44:21;100203.81;;;-3.91;98.25
14790;BME280;7486;51.010;10.366;2023-01-25T00:46:48;100149.94;;;-4.22;98.49
14790;BME280;7486;51.010;10.366;2023-01-25T00:51:45;100201.59;;;-3.62;96.70
14790;BME280;7486;51.010;10.366;2023-01-25T00:54:12;100206.13;;;-3.85;97.61
14790;BME280;7486;51.010;10.366;2023-01-25T00:56:39;100206.63;;;-3.77;97.61
14790;BME280;7486;51.010;10.366;2023-01-25T00:59:06;100201.69;;;-3.83;98.26
14790;BME280;7486;51.010;10.366;2023-01-25T01:01:33;100200.94;;;-3.85;97.97
14790;BME280;7486;51.010;10.366;2023-01-25T01:04:00;100193.88;;;-3.82;97.68
14790;BME280;7486;51.010;10.366;2023-01-25T01:06:27;100199.72;;;-3.77;98.09
14790;BME280;7486;51.010;10.366;2023-01-25T01:08:54;100201.59;;;-3.62;97.10
14790;BME280;7486;51.010;10.366;2023-01-25T01:11:21;100199.34;;;-3.69;96.73
14790;BME280;7486;51.010;10.366;2023-01-25T01:13:49;100197.28;;;-3.61;96.59
14790;BME280;7486;51.010;10.366;2023-01-25T01:16:16;100204.22;;;-3.82;97.36
14790;BME280;7486;51.010;10.366;2023-01-25T01:18:44;100199.34;;;-3.88;97.40
14790;BME280;7486;51.010;10.366;2023-01-25T01:21:12;100197.66;;;-3.89;97.62
14790;BME280;7486;51.010;10.366;2023-01-25T01:23:39;100201.06;;;-3.88;97.50
14790;BME280;7486;51.010;10.366;2023-01-25T01:26:10;100185.69;;;-3.91;97.69
14790;BME280;7486;51.010;10.366;2023-01-25T01:28:37;100174.22;;;-4.06;98.17
14790;BME280;7486;51.010;10.366;2023-01-25T01:31:07;100189.75;;;-3.86;97.93
14790;BME280;7486;51.010;10.366;2023-01-25T01:33:37;100178.34;;;-3.82;97.81
14790;BME280;7486;51.010;10.366;2023-01-25T01:36:12;100193.06;;;-3.64;97.03
14790;BME280;7486;51.010;10.366;2023-01-25T01:38:39;100192.69;;;-3.75;96.92
14790;BME280;7486;51.010;10.366;2023-01-25T01:41:07;100126.22;;;-4.13;97.55
14790;BME280;7486;51.010;10.366;2023-01-25T01:43:36;100188.69;;;-3.82;97.58
14790;BME280;7486;51.010;10.366;2023-01-25T01:46:44;100197.38;;;-3.83;97.35
14790;BME280;7486;51.010;10.366;2023-01-25T01:49:26;100189.25;;;-3.94;98.22
14790;BME280;7486;51.010;10.366;2023-01-25T01:52:09;100192.59;;;-3.92;97.94
14790;BME280;7486;51.010;10.366;2023-01-25T01:54:54;100191.16;;;-3.79;96.66
14790;BME280;7486;51.010;10.366;2023-01-25T01:57:25;100190.78;;;-3.90;97.18
14790;BME280;7486;51.010;10.366;2023-01-25T02:00:02;100180.88;;;-4.01;98.19
14790;BME280;7486;51.010;10.366;2023-01-25T02:02:39;100189.84;;;-3.69;97.67
14790;BME280;7486;51.010;10.366;2023-01-25T02:05:11;100180.09;;;-3.82;96.33
14790;BME280;7486;51.010;10.366;2023-01-25T02:07:43;100182.56;;;-3.61;96.26
14790;BME280;7486;51.010;10.366;2023-01-25T02:10:13;100180.28;;;-3.87;96.67
14790;BME280;7486;51.010;10.366;2023-01-25T02:12:42;100182.53;;;-3.79;97.14
14790;BME280;7486;51.010;10.366;2023-01-25T02:15:09;100181.44;;;-3.74;96.86
14790;BME280;7486;51.010;10.366;2023-01-25T02:17:39;100171.25;;;-4.17;97.43
14790;BME280;7486;51.010;10.366;2023-01-25T02:20:34;100171.03;;;-4.11;98.68
14790;BME280;7486;51.010;10.366;2023-01-25T02:23:29;100176.75;;;-3.84;98.18
14790;BME280;7486;51.010;10.366;2023-01-25T02:26:03;100157.59;;;-4.01;97.16
14790;BME280;7486;51.010;10.366;2023-01-25T02:28:39;100180.13;;;-4.03;97.31
14790;BME280;7486;51.010;10.366;2023-01-25T02:31:08;100165.56;;;-4.05;97.95
14790;BME280;7486;51.010;10.366;2023-01-25T02:33:35;100169.59;;;-4.18;98.32
14790;BME280;7486;51.010;10.366;2023-01-25T02:38:35;100165.91;;;-4.13;98.72
14790;BME280;7486;51.010;10.366;2023-01-25T02:41:09;100161.44;;;-4.09;97.54
14790;BME280;7486;51.010;10.366;2023-01-25T02:43:39;100106.16;;;-4.67;98.96
14790;BME280;7486;51.010;10.366;2023-01-25T02:46:12;100144.81;;;-4.44;99.94
14790;BME280;7486;51.010;10.366;2023-01-25T02:48:43;100153.59;;;-4.28;100.00
14790;BME280;7486;51.010;10.366;2023-01-25T02:51:10;100095.41;;;-4.38;100.00
14790;BME280;7486;51.010;10.366;2023-01-25T02:53:39;100143.81;;;-4.21;98.69
14790;BME280;7486;51.010;10.366;2023-01-25T02:56:06;100120.47;;;-4.38;99.12
14790;BME280;7486;51.010;10.366;2023-01-25T02:58:33;100135.88;;;-4.17;99.14
14790;BME280;7486;51.010;10.366;2023-01-25T03:01:00;100139.56;;;-4.02;98.07
14790;BME280;7486;51.010;10.366;2023-01-25T03:03:27;100135.19;;;-4.40;99.32
14790;BME280;7486;51.010;10.366;2023-01-25T03:05:54;100133.63;;;-4.24;99.53
14790;BME280;7486;51.010;10.366;2023-01-25T03:08:21;100119.50;;;-4.17;99.20
14790;BME280;7486;51.010;10.366;2023-01-25T03:10:50;100122.09;;;-3.78;98.65
14790;BME280;7486;51.010;10.366;2023-01-25T03:13:17;100102.13;;;-3.76;96.97
14790;BME280;7486;51.010;10.366;2023-01-25T03:15:44;100112.41;;;-3.93;97.54
14790;BME280;7486;51.010;10.366;2023-01-25T03:18:11;100107.53;;;-3.62;96.36
14790;BME280;7486;51.010;10.366;2023-01-25T03:20:37;100104.56;;;-3.73;95.34
14790;BME280;7486;51.010;10.366;2023-01-25T03:23:04;100102.75;;;-3.53;95.55
14790;BME280;7486;51.010;10.366;2023-01-25T03:25:31;100101.44;;;-3.25;94.43
14790;BME280;7486;51.010;10.366;2023-01-25T03:28:06;100088.34;;;-3.39;93.40
14790;BME280;7486;51.010;10.366;2023-01-25T03:30:33;100091.03;;;-3.60;94.43
14790;BME280;7486;51.010;10.366;2023-01-25T03:33:00;100090.44;;;-3.48;94.13
14790;BME280;7486;51.010;10.366;2023-01-25T03:35:28;100084.41;;;-3.29;93.33
14790;BME280;7486;51.010;10.366;2023-01-25T03:37:55;100087.41;;;-3.38;91.80
14790;BME280;7486;51.010;10.366;2023-01-25T03:40:21;100072.09;;;-3.43;92.38
14790;BME280;7486;51.010;10.366;2023-01-25T03:42:48;100088.63;;;-3.28;92.20
14790;BME280;7486;51.010;10.366;2023-01-25T03:45:15;100050.22;;;-3.37;91.71
14790;BME280;7486;51.010;10.366;2023-01-25T03:47:42;100063.66;;;-3.29;91.02
14790;BME280;7486;51.010;10.366;2023-01-25T03:50:10;100066.63;;;-3.56;91.97
14790;BME280;7486;51.010;10.366;2023-01-25T03:52:46;100075.03;;;-3.51;92.67
14790;BME280;7486;51.010;10.366;2023-01-25T03:55:16;100052.78;;;-3.55;92.43
14790;BME280;7486;51.010;10.366;2023-01-25T03:57:44;100055.66;;;-3.25;91.84
14790;BME280;7486;51.010;10.366;2023-01-25T04:00:11;100070.47;;;-3.10;90.54
14790;BME280;7486;51.010;10.366;2023-01-25T04:02:43;100059.31;;;-3.29;89.98
14790;BME280;7486;51.010;10.366;2023-01-25T04:05:13;100069.69;;;-3.29;89.90
14790;BME280;7486;51.010;10.366;2023-01-25T04:07:40;100055.63;;;-3.42;90.49
14790;BME280;7486;51.010;10.366;2023-01-25T04:10:08;100064.25;;;-3.24;90.44
14790;BME280;7486;51.010;10.366;2023-01-25T04:12:38;100063.97;;;-3.18;89.23
14790;BME280;7486;51.010;10.366;2023-01-25T04:15:06;100061.69;;;-3.24;89.09
14790;BME280;7486;51.010;10.366;2023-01-25T04:17:33;100057.50;;;-3.46;89.95
14790;BME280;7486;51.010;10.366;2023-01-25T04:20:10;100058.84;;;-3.37;90.47
14790;BME280;7486;51.010;10.366;2023-01-25T04:22:40;100054.16;;;-3.48;90.16
14790;BME280;7486;51.010;10.366;2023-01-25T04:25:07;100041.28;;;-3.49;91.21
14790;BME280;7486;51.010;10.366;2023-01-25T04:27:40;100047.72;;;-3.22;91.19
14790;BME280;7486;51.010;10.366;2023-01-25T04:30:11;100047.81;;;-3.23;89.28
14790;BME280;7486;51.010;10.366;2023-01-25T04:32:38;100045.44;;;-3.28;89.38
14790;BME280;7486;51.010;10.366;2023-01-25T04:35:17;100050.38;;;-3.40;89.89
14790;BME280;7486;51.010;10.366;2023-01-25T04:37:51;100036.50;;;-3.75;90.75
14790;BME280;7486;51.010;10.366;2023-01-25T04:40:19;100060.19;;;-3.66;90.91
14790;BME280;7486;51.010;10.366;2023-01-25T04:42:46;100046.78;;;-3.74;91.03
14790;BME280;7486;51.010;10.366;2023-01-25T04:45:15;100039.47;;;-3.66;90.84
14790;BME280;7486;51.010;10.366;2023-01-25T04:47:42;100043.06;;;-3.87;91.67
14790;BME280;7486;51.010;10.366;2023-01-25T04:50:09;100030.56;;;-3.96;91.79
14790;BME280;7486;51.010;10.366;2023-01-25T04:52:36;100039.03;;;-3.92;91.86
14790;BME280;7486;51.010;10.366;2023-01-25T04:55:03;100043.00;;;-3.67;92.20
14790;BME280;7486;51.010;10.366;2023-01-25T04:57:36;100046.09;;;-3.41;91.70
14790;BME280;7486;51.010;10.366;2023-01-25T05:00:04;100042.75;;;-3.43;90.95
14790;BME280;7486;51.010;10.366;2023-01-25T05:02:31;100050.28;;;-3.75;90.92
14790;BME280;7486;51.010;10.366;2023-01-25T05:04:58;100027.53;;;-3.87;91.38
14790;BME280;7486;51.010;10.366;2023-01-25T05:07:25;100044.41;;;-3.78;91.32
14790;BME280;7486;51.010;10.366;2023-01-25T05:09:53;100023.13;;;-3.85;92.00
14790;BME280;7486;51.010;10.366;2023-01-25T05:12:22;100032.16;;;-3.39;90.79
14790;BME280;7486;51.010;10.366;2023-01-25T05:14:57;100029.19;;;-3.31;90.23
14790;BME280;7486;51.010;10.366;2023-01-25T05:17:24;100026.00;;;-3.36;89.87
14790;BME280;7486;51.010;10.366;2023-01-25T05:19:50;100018.53;;;-3.25;89.29
14790;BME280;7486;51.010;10.366;2023-01-25T05:22:20;100027.44;;;-3.31;88.71
14790;BME280;7486;51.010;10.366;2023-01-25T05:24:51;100028.56;;;-3.54;88.63
14790;BME280;7486;51.010;10.366;2023-01-25T05:27:18;100015.97;;;-3.61;89.22
14790;BME280;7486;51.010;10.366;2023-01-25T05:29:55;100020.13;;;-3.76;89.15
14790;BME280;7486;51.010;10.366;2023-01-25T05:32:42;100008.03;;;-3.94;90.51
14790;BME280;7486;51.010;10.366;2023-01-25T05:35:09;100019.25;;;-3.58;90.89
14790;BME280;7486;51.010;10.366;2023-01-25T05:37:37;100010.06;;;-3.46;89.74
14790;BME280;7486;51.010;10.366;2023-01-25T05:40:07;100010.44;;;-3.54;90.15
14790;BME280;7486;51.010;10.366;2023-01-25T05:42:36;100003.63;;;-3.56;89.91
14790;BME280;7486;51.010;10.366;2023-01-25T05:45:07;100009.75;;;-3.57;89.18
14790;BME280;7486;51.010;10.366;2023-01-25T05:47:37;100019.59;;;-4.01;90.37
14790;BME280;7486;51.010;10.366;2023-01-25T05:50:04;100007.63;;;-4.22;92.09
14790;BME280;7486;51.010;10.366;2023-01-25T05:52:47;100019.22;;;-4.12;93.26
14790;BME280;7486;51.010;10.366;2023-01-25T05:55:13;100011.94;;;-4.04;92.69
14790;BME280;7486;51.010;10.366;2023-01-25T05:57:41;99964.88;;;-4.31;93.06
14790;BME280;7486;51.010;10.366;2023-01-25T06:00:09;100010.56;;;-4.11;92.67
14790;BME280;7486;51.010;10.366;2023-01-25T06:02:38;100016.97;;;-4.20;93.34
14790;BME280;7486;51.010;10.366;2023-01-25T06:05:08;100018.94;;;-4.06;93.53
14790;BME280;7486;51.010;10.366;2023-01-25T06:07:35;100011.34;;;-3.73;93.42
14790;BME280;7486;51.010;10.366;2023-01-25T06:10:03;100010.81;;;-3.80;91.76
14790;BME280;7486;51.010;10.366;2023-01-25T06:12:30;100012.38;;;-4.13;92.29
14790;BME280;7486;51.010;10.366;2023-01-25T06:14:58;100019.69;;;-4.04;93.25
14790;BME280;7486;51.010;10.366;2023-01-25T06:17:24;100012.44;;;-3.96;93.15
14790;BME280;7486;51.010;10.366;2023-01-25T06:20:01;100014.09;;;-3.76;92.35
14790;BME280;7486;51.010;10.366;2023-01-25T06:22:34;100022.00;;;-3.79;92.92
14790;BME280;7486;51.010;10.366;2023-01-25T06:25:00;100019.31;;;-3.59;91.29
14790;BME280;7486;51.010;10.366;2023-01-25T06:27:27;100021.09;;;-3.60;90.41
14790;BME280;7486;51.010;10.366;2023-01-25T06:29:54;100022.66;;;-3.74;90.34
14790;BME280;7486;51.010;10.366;2023-01-25T06:32:20;100013.69;;;-3.86;90.23
14790;BME280;7486;51.010;10.366;2023-01-25T06:34:47;100006.75;;;-4.04;90.46
14790;BME280;7486;51.010;10.366;2023-01-25T06:37:19;100019.63;;;-4.21;91.41
14790;BME280;7486;51.010;10.366;2023-01-25T06:39:46;100026.06;;;-4.30;92.14
14790;BME280;7486;51.010;10.366;2023-01-25T06:42:13;100023.91;;;-4.20;92.39
14790;BME280;7486;51.010;10.366;2023-01-25T06:44:39;100028.47;;;-4.25;92.93
14790;BME280;7486;51.010;10.366;2023-01-25T06:47:10;100017.97;;;-4.22;92.54
14790;BME280;7486;51.010;10.366;2023-01-25T06:49:37;99970.44;;;-4.38;92.56
14790;BME280;7486;51.010;10.366;2023-01-25T06:52:04;100012.94;;;-3.88;91.66
14790;BME280;7486;51.010;10.366;2023-01-25T06:54:30;100008.31;;;-3.81;91.70
14790;BME280;7486;51.010;10.366;2023-01-25T06:56:57;100021.72;;;-3.73;90.91
14790;BME280;7486;51.010;10.366;2023-01-25T06:59:24;99994.72;;;-3.86;91.20
14790;BME280;7486;51.010;10.366;2023-01-25T07:01:50;100019.22;;;-3.75;90.64
14790;BME280;7486;51.010;10.366;2023-01-25T07:04:18;100018.38;;;-3.75;90.42
14790;BME280;7486;51.010;10.366;2023-01-25T07:06:45;100009.59;;;-3.73;90.16
14790;BME280;7486;51.010;10.366;2023-01-25T07:09:13;100007.56;;;-3.66;90.37
14790;BME280;7486;51.010;10.366;2023-01-25T07:11:40;99957.63;;;-3.87;89.67
14790;BME280;7486;51.010;10.366;2023-01-25T07:14:07;99950.56;;;-4.19;90.42
14790;BME280;7486;51.010;10.366;2023-01-25T07:16:33;100002.88;;;-3.94;91.55
14790;BME280;7486;51.010;10.366;2023-01-25T07:19:02;100009.09;;;-3.98;91.99
14790;BME280;7486;51.010;10.366;2023-01-25T07:21:29;99994.72;;;-3.86;91.35
14790;BME280;7486;51.010;10.366;2023-01-25T07:24:00;100008.44;;;-3.84;91.86
14790;BME280;7486;51.010;10.366;2023-01-25T07:26:27;100001.59;;;-3.85;92.32
14790;BME280;7486;51.010;10.366;2023-01-25T07:28:56;100007.72;;;-3.69;91.79
14790;BME280;7486;51.010;10.366;2023-01-25T07:31:23;100004.75;;;-3.62;91.40
14790;BME280;7486;51.010;10.366;2023-01-25T07:33:56;99973.47;;;-3.93;90.81
14790;BME280;7486;51.010;10.366;2023-01-25T07:36:24;99995.56;;;-3.86;91.35
14790;BME280;7486;51.010;10.366;2023-01-25T07:38:55;99939.09;;;-4.51;91.21
14790;BME280;7486;51.010;10.366;2023-01-25T07:41:23;99993.81;;;-4.60;93.09
14790;BME280;7486;51.010;10.366;2023-01-25T07:43:51;99992.44;;;-4.69;94.61
14790;BME280;7486;51.010;10.366;2023-01-25T07:46:32;99976.06;;;-4.88;95.93
14790;BME280;7486;51.010;10.366;2023-01-25T07:48:59;99981.59;;;-4.57;96.61
14790;BME280;7486;51.010;10.366;2023-01-25T07:51:25;99979.22;;;-4.42;95.95
14790;BME280;7486;51.010;10.366;2023-01-25T07:53:53;99975.59;;;-4.38;95.68
14790;BME280;7486;51.010;10.366;2023-01-25T07:56:25;99957.28;;;-4.53;95.14
14790;BME280;7486;51.010;10.366;2023-01-25T07:58:54;99959.34;;;-4.61;95.80
14790;BME280;7486;51.010;10.366;2023-01-25T08:01:23;99968.50;;;-4.54;96.20
14790;BME280;7486;51.010;10.366;2023-01-25T08:03:51;99974.06;;;-4.42;95.90
14790;BME280;7486;51.010;10.366;2023-01-25T08:06:23;99976.69;;;-4.44;96.06
14790;BME280;7486;51.010;10.366;2023-01-25T08:08:50;99975.44;;;-4.54;95.59
14790;BME280;7486;51.010;10.366;2023-01-25T08:11:20;99969.91;;;-4.46;96.19
14790;BME280;7486;51.010;10.366;2023-01-25T08:13:48;99971.53;;;-4.44;95.58
14790;BME280;7486;51.010;10.366;2023-01-25T08:16:20;99970.34;;;-4.56;95.82
14790;BME280;7486;51.010;10.366;2023-01-25T08:18:49;99964.47;;;-4.40;95.77
14790;BME280;7486;51.010;10.366;2023-01-25T08:21:16;99963.84;;;-4.45;95.91
14790;BME280;7486;51.010;10.366;2023-01-25T08:23:44;99963.25;;;-4.71;96.58
14790;BME280;7486;51.010;10.366;2023-01-25T08:26:12;99962.03;;;-4.82;97.08
14790;BME280;7486;51.010;10.366;2023-01-25T08:28:39;99947.22;;;-4.97;98.16
14790;BME280;7486;51.010;10.366;2023-01-25T08:31:13;99969.47;;;-4.95;98.26
14790;BME280;7486;51.010;10.366;2023-01-25T08:33:41;99966.88;;;-4.75;98.77
14790;BME280;7486;51.010;10.366;2023-01-25T08:36:09;99969.91;;;-4.46;97.68
14790;BME280;7486;51.010;10.366;2023-01-25T08:38:36;99971.81;;;-4.13;96.81
14790;BME280;7486;51.010;10.366;2023-01-25T08:41:16;99966.53;;;-3.92;94.88
14790;BME280;7486;51.010;10.366;2023-01-25T08:43:44;99968.78;;;-3.85;93.83
14790;BME280;7486;51.010;10.366;2023-01-25T08:46:13;99969.25;;;-3.77;93.19
14790;BME280;7486;51.010;10.366;2023-01-25T08:48:40;99947.19;;;-3.67;93.11
14790;BME280;7486;51.010;10.366;2023-01-25T08:51:08;99957.94;;;-3.57;91.85
14790;BME280;7486;51.010;10.366;2023-01-25T08:54:04;99952.41;;;-3.32;90.26
14790;BME280;7486;51.010;10.366;2023-01-25T08:56:32;99923.91;;;-3.50;88.65
14790;BME280;7486;51.010;10.366;2023-01-25T08:59:01;99958.91;;;-3.25;88.14
14790;BME280;7486;51.010;10.366;2023-01-25T09:01:28;99944.59;;;-3.67;89.33
14790;BME280;7486;51.010;10.366;2023-01-25T09:03:55;99951.53;;;-3.50;89.42
14790;BME280;7486;51.010;10.366;2023-01-25T09:06:22;99944.16;;;-3.23;89.93
14790;BME280;7486;51.010;10.366;2023-01-25T09:08:48;99938.75;;;-3.19;88.44
14790;BME280;7486;51.010;10.366;2023-01-25T09:11:18;99930.47;;;-3.78;88.13
14790;BME280;7486;51.010;10.366;2023-01-25T09:13:46;99931.16;;;-3.75;90.30
14790;BME280;7486;51.010;10.366;2023-01-25T09:16:16;99935.13;;;-4.04;90.30
14790;BME280;7486;51.010;10.366;2023-01-25T09:18:43;99934.94;;;-3.99;91.44
14790;BME280;7486;51.010;10.366;2023-01-25T09:21:15;99935.78;;;-4.17;91.90
14790;BME280;7486;51.010;10.366;2023-01-25T09:23:43;99934.38;;;-4.06;92.63
14790;BME280;7486;51.010;10.366;2023-01-25T09:26:30;99924.19;;;-4.09;92.46
14790;BME280;7486;51.010;10.366;2023-01-25T09:28:57;99929.66;;;-4.15;93.33
14790;BME280;7486;51.010;10.366;2023-01-25T09:31:25;99929.50;;;-4.12;93.33
14790;BME280;7486;51.010;10.366;2023-01-25T09:34:13;99909.19;;;-4.02;92.58
14790;BME280;7486;51.010;10.366;2023-01-25T09:36:40;99876.88;;;-4.29;92.53
14790;BME280;7486;51.010;10.366;2023-01-25T09:39:08;99928.84;;;-3.98;93.21
14790;BME280;7486;51.010;10.366;2023-01-25T09:42:04;99932.34;;;-3.46;92.94
14790;BME280;7486;51.010;10.366;2023-01-25T09:45:07;99926.47;;;-3.15;92.00
14790;BME280;7486;51.010;10.366;2023-01-25T09:48:08;99923.25;;;-3.20;90.21
14790;BME280;7486;51.010;10.366;2023-01-25T09:55:49;99923.41;;;-3.75;89.75
14790;BME280;7486;51.010;10.366;2023-01-25T09:58:42;99909.78;;;-3.44;90.61
14790;BME280;7486;51.010;10.366;2023-01-25T10:01:21;99912.38;;;-3.61;89.41
14790;BME280;7486;51.010;10.366;2023-01-25T10:04:11;99928.06;;;-3.47;89.67
14790;BME280;7486;51.010;10.366;2023-01-25T10:06:41;99928.28;;;-3.52;87.59
14790;BME280;7486;51.010;10.366;2023-01-25T10:11:50;99916.38;;;-3.21;88.13
14790;BME280;7486;51.010;10.366;2023-01-25T10:14:17;99864.00;;;-3.61;88.79
14790;BME280;7486;51.010;10.366;2023-01-25T10:22:33;99899.06;;;-3.04;88.19
14790;BME280;7486;51.010;10.366;2023-01-25T10:32:51;99886.38;;;-2.92;86.84
14790;BME280;7486;51.010;10.366;2023-01-25T10:35:26;99879.41;;;-2.75;85.66
14790;BME280;7486;51.010;10.366;2023-01-25T10:38:10;99874.63;;;-2.67;85.33
14790;BME280;7486;51.010;10.366;2023-01-25T10:40:49;99870.00;;;-2.77;85.60
14790;BME280;7486;51.010;10.366;2023-01-25T10:43:21;99873.59;;;-2.96;85.94
14790;BME280;7486;51.010;10.366;2023-01-25T10:45:48;99865.84;;;-3.13;86.71
14790;BME280;7486;51.010;10.366;2023-01-25T10:48:30;99868.44;;;-3.13;87.89
14790;BME280;7486;51.010;10.366;2023-01-25T10:50:59;99860.47;;;-3.42;87.96
14790;BME280;7486;51.010;10.366;2023-01-25T10:58:42;99840.91;;;-3.48;90.26
14790;BME280;7486;51.010;10.366;2023-01-25T11:01:12;99842.44;;;-3.61;90.59
14790;BME280;7486;51.010;10.366;2023-01-25T11:03:42;99775.69;;;-3.89;90.30
14790;BME280;7486;51.010;10.366;2023-01-25T11:06:09;99829.63;;;-3.47;90.51
14790;BME280;7486;51.010;10.366;2023-01-25T11:08:38;99807.69;;;-3.40;90.19
14790;BME280;7486;51.010;10.366;2023-01-25T11:13:40;99816.25;;;-3.22;90.15
14790;BME280;7486;51.010;10.366;2023-01-25T11:16:30;99799.44;;;-3.64;89.94
14790;BME280;7486;51.010;10.366;2023-01-25T11:18:59;99800.03;;;-3.76;91.01
14790;BME280;7486;51.010;10.366;2023-01-25T11:21:28;99799.09;;;-3.58;91.15
14790;BME280;7486;51.010;10.366;2023-01-25T11:24:16;99788.88;;;-3.43;90.66
14790;BME280;7486;51.010;10.366;2023-01-25T11:26:44;99784.94;;;-3.35;90.68
14790;BME280;7486;51.010;10.366;2023-01-25T11:29:21;99779.81;;;-3.19;90.86
14790;BME280;7486;51.010;10.366;2023-01-25T11:31:51;99771.78;;;-3.15;89.16
14790;BME280;7486;51.010;10.366;2023-01-25T11:34:20;99770.41;;;-3.37;88.55
14790;BME280;7486;51.010;10.366;2023-01-25T11:37:15;99769.91;;;-3.28;88.88
14790;BME280;7486;51.010;10.366;2023-01-25T11:42:55;99739.88;;;-3.15;87.74
14790;BME280;7486;51.010;10.366;2023-01-25T11:51:01;99739.50;;;-2.93;87.62
14790;BME280;7486;51.010;10.366;2023-01-25T12:04:24;99709.69;;;-3.16;88.56
14790;BME280;7486;51.010;10.366;2023-01-25T12:07:02;99689.66;;;-3.46;87.96
14790;BME280;7486;51.010;10.366;2023-01-25T12:30:03;99627.41;;;-3.28;87.46
14790;BME280;7486;51.010;10.366;2023-01-25T12:32:42;99658.75;;;-3.17;86.62
14790;BME280;7486;51.010;10.366;2023-01-25T12:35:21;99660.00;;;-3.24;87.45
14790;BME280;7486;51.010;10.366;2023-01-25T12:37:53;99646.28;;;-3.11;87.48
14790;BME280;7486;51.010;10.366;2023-01-25T12:40:48;99622.28;;;-3.14;86.82
14790;BME280;7486;51.010;10.366;2023-01-25T12:43:40;99649.78;;;-2.96;85.78
14790;BME280;7486;51.010;10.366;2023-01-25T12:47:03;99642.13;;;-3.13;85.44
14790;BME280;7486;51.010;10.366;2023-01-25T12:49:20;99640.53;;;-3.16;86.43
14790;BME280;7486;51.010;10.366;2023-01-25T12:51:50;99640.34;;;-2.97;85.39
14790;BME280;7486;51.010;10.366;2023-01-25T12:54:22;99621.94;;;-2.92;85.51
14790;BME280;7486;51.010;10.366;2023-01-25T12:56:55;99627.13;;;-3.08;85.10
14790;BME280;7486;51.010;10.366;2023-01-25T12:59:32;99613.50;;;-3.12;86.30
14790;BME280;7486;51.010;10.366;2023-01-25T13:05:00;99605.19;;;-2.87;84.87
14790;BME280;7486;51.010;10.366;2023-01-25T13:10:15;99608.75;;;-2.74;83.86
14790;BME280;7486;51.010;10.366;2023-01-25T13:13:01;99588.94;;;-2.75;84.44
14790;BME280;7486;51.010;10.366;2023-01-25T13:15:42;99594.50;;;-2.67;83.96
14790;BME280;7486;51.010;10.366;2023-01-25T13:20:55;99577.72;;;-2.75;83.70
14790;BME280;7486;51.010;10.366;2023-01-25T13:23:36;99579.56;;;-2.77;84.17
14790;BME280;7486;51.010;10.366;2023-01-25T13:28:49;99582.09;;;-3.06;84.10
14790;BME280;7486;51.010;10.366;2023-01-25T13:37:04;99558.47;;;-3.15;85.00
14790;BME280;7486;51.010;10.366;2023-01-25T13:44:39;99549.38;;;-3.08;84.64
14790;BME280;7486;51.010;10.366;2023-01-25T13:47:13;99542.63;;;-2.67;84.89
14790;BME280;7486;51.010;10.366;2023-01-25T13:49:59;99541.63;;;-2.64;84.37
14790;BME280;7486;51.010;10.366;2023-01-25T13:52:28;99533.81;;;-3.08;83.72
14790;BME280;7486;51.010;10.366;2023-01-25T13:54:56;99540.50;;;-3.04;84.52
14790;BME280;7486;51.010;10.366;2023-01-25T13:57:26;99519.16;;;-3.23;85.27
14790;BME280;7486;51.010;10.366;2023-01-25T14:00:12;99526.94;;;-3.23;85.23
14790;BME280;7486;51.010;10.366;2023-01-25T14:02:42;99521.66;;;-3.52;85.88
14790;BME280;7486;51.010;10.366;2023-01-25T14:05:21;99506.72;;;-4.25;88.49
14790;BME280;7486;51.010;10.366;2023-01-25T14:07:51;99494.22;;;-4.01;89.57
14790;BME280;7486;51.010;10.366;2023-01-25T14:10:26;99501.69;;;-3.50;89.08
14790;BME280;7486;51.010;10.366;2023-01-25T14:12:58;99502.25;;;-3.44;86.85
14790;BME280;7486;51.010;10.366;2023-01-25T14:15:28;99507.53;;;-3.46;86.31
14790;BME280;7486;51.010;10.366;2023-01-25T14:18:17;99499.53;;;-3.73;87.44
14790;BME280;7486;51.010;10.366;2023-01-25T14:20:46;99502.78;;;-3.54;86.92
14790;BME280;7486;51.010;10.366;2023-01-25T14:25:55;99489.75;;;-3.22;87.53
14790;BME280;7486;51.010;10.366;2023-01-25T14:28:22;99491.66;;;-2.96;87.10
14790;BME280;7486;51.010;10.366;2023-01-25T14:30:53;99492.41;;;-2.80;86.18
14790;BME280;7486;51.010;10.366;2023-01-25T14:33:31;99481.78;;;-2.61;84.96
14790;BME280;7486;51.010;10.366;2023-01-25T14:36:07;99487.22;;;-2.80;84.46
14790;BME280;7486;51.010;10.366;2023-01-25T14:38:50;99482.31;;;-2.99;84.72
14790;BME280;7486;51.010;10.366;2023-01-25T14:43:58;99482.03;;;-2.80;84.43
14790;BME280;7486;51.010;10.366;2023-01-25T14:46:27;99470.84;;;-2.80;84.75
14790;BME280;7486;51.010;10.366;2023-01-25T14:49:17;99471.88;;;-2.55;84.45
14790;BME280;7486;51.010;10.366;2023-01-25T14:54:28;99467.88;;;-2.46;83.54
14790;BME280;7486;51.010;10.366;2023-01-25T14:57:01;99470.84;;;-2.38;83.01
14790;BME280;7486;51.010;10.366;2023-01-25T14:59:40;99460.78;;;-2.71;82.74
14790;BME280;7486;51.010;10.366;2023-01-25T15:02:26;99456.97;;;-2.65;83.28
14790;BME280;7486;51.010;10.366;2023-01-25T15:04:57;99449.25;;;-2.53;83.54